sensor_id;sensor_type;location;lat;lon;timestamp;pressure;altitude;pressure_sealevel;temperature;humidity
71915;BME280;60387;49.994;14.660;2023-03-25T00:01:42;96810.47;;;14.86;49.68
71915;BME280;60387;49.994;14.660;2023-03-25T00:04:15;96812.75;;;14.84;49.91
71915;BME280;60387;49.994;14.660;2023-03-25T00:06:49;96807.56;;;14.79;49.53
71915;BME280;60387;49.994;14.660;2023-03-25T00:09:22;96812.13;;;14.75;49.59
71915;BME280;60387;49.994;14.660;2023-03-25T00:11:55;96803.19;;;14.75;50.00
71915;BME280;60387;49.994;14.660;2023-03-25T00:14:29;96810.34;;;14.67;50.56
71915;BME280;60387;49.994;14.660;2023-03-25T00:17:02;96819.69;;;14.66;50.07
71915;BME280;60387;49.994;14.660;2023-03-25T00:19:35;96800.06;;;14.61;50.23
71915;BME280;60387;49.994;14.660;2023-03-25T00:22:09;96812.53;;;14.62;49.89
71915;BME280;60387;49.994;14.660;2023-03-25T00:24:42;96820.63;;;14.58;50.18
71915;BME280;60387;49.994;14.660;2023-03-25T00:27:15;96808.13;;;14.57;49.83
71915;BME280;60387;49.994;14.660;2023-03-25T00:29:48;96810.88;;;14.57;50.07
71915;BME280;60387;49.994;14.660;2023-03-25T00:32:22;96800.19;;;14.52;50.09
71915;BME280;60387;49.994;14.660;2023-03-25T00:34:55;96804.44;;;14.50;50.43
71915;BME280;60387;49.994;14.660;2023-03-25T00:37:28;96804.78;;;14.48;50.66
71915;BME280;60387;49.994;14.660;2023-03-25T00:40:02;96805.47;;;14.45;50.51
71915;BME280;60387;49.994;14.660;2023-03-25T00:42:35;96794.72;;;14.37;50.68
71915;BME280;60387;49.994;14.660;2023-03-25T00:45:12;96796.41;;;14.41;50.63
71915;BME280;60387;49.994;14.660;2023-03-25T00:47:45;96795.63;;;14.41;51.06
71915;BME280;60387;49.994;14.660;2023-03-25T00:50:19;96799.84;;;14.38;51.41
71915;BME280;60387;49.994;14.660;2023-03-25T00:52:52;96802.13;;;14.36;50.94
71915;BME280;60387;49.994;14.660;2023-03-25T00:55:25;96793.94;;;14.36;50.66
71915;BME280;60387;49.994;14.660;2023-03-25T00:57:59;96794.72;;;14.37;50.86
71915;BME280;60387;49.994;14.660;2023-03-25T01:00:32;96796.19;;;14.34;51.05
71915;BME280;60387;49.994;14.660;2023-03-25T01:03:06;96805.53;;;14.33;50.50
71915;BME280;60387;49.994;14.660;2023-03-25T01:05:39;96789.06;;;14.30;50.99
71915;BME280;60387;49.994;14.660;2023-03-25T01:08:12;96787.28;;;14.22;52.08
71915;BME280;60387;49.994;14.660;2023-03-25T01:10:46;96792.75;;;14.22;51.10
71915;BME280;60387;49.994;14.660;2023-03-25T01:13:20;96791.84;;;14.18;51.65
71915;BME280;60387;49.994;14.660;2023-03-25T01:15:53;96798.75;;;14.15;52.29
71915;BME280;60387;49.994;14.660;2023-03-25T01:18:27;96791.28;;;14.12;52.31
71915;BME280;60387;49.994;14.660;2023-03-25T01:21:00;96798.09;;;14.06;52.33
71915;BME280;60387;49.994;14.660;2023-03-25T01:23:34;96805.13;;;14.07;51.74
71915;BME280;60387;49.994;14.660;2023-03-25T01:26:07;96792.13;;;14.01;51.72
71915;BME280;60387;49.994;14.660;2023-03-25T01:28:42;96797.44;;;13.97;51.85
71915;BME280;60387;49.994;14.660;2023-03-25T01:31:15;96795.88;;;13.96;52.84
71915;BME280;60387;49.994;14.660;2023-03-25T01:33:49;96791.56;;;13.95;51.78
71915;BME280;60387;49.994;14.660;2023-03-25T01:36:23;96791.78;;;13.90;52.56
71915;BME280;60387;49.994;14.660;2023-03-25T01:38:57;96781.72;;;13.91;52.75
71915;BME280;60387;49.994;14.660;2023-03-25T01:41:33;96795.22;;;13.87;52.52
71915;BME280;60387;49.994;14.660;2023-03-25T01:46:41;96785.59;;;13.78;52.67
71915;BME280;60387;49.994;14.660;2023-03-25T01:49:27;96790.91;;;13.74;51.77
71915;BME280;60387;49.994;14.660;2023-03-25T01:52:04;96784.25;;;13.72;52.14
71915;BME280;60387;49.994;14.660;2023-03-25T01:54:40;96777.22;;;13.71;52.26
71915;BME280;60387;49.994;14.660;2023-03-25T01:57:18;96781.06;;;13.70;52.03
71915;BME280;60387;49.994;14.660;2023-03-25T01:59:53;96774.38;;;13.67;52.37
71915;BME280;60387;49.994;14.660;2023-03-25T02:02:27;96780.97;;;13.66;52.92
71915;BME280;60387;49.994;14.660;2023-03-25T02:08:06;96768.75;;;13.60;52.31
71915;BME280;60387;49.994;14.660;2023-03-25T02:10:44;96768.75;;;13.60;52.60
71915;BME280;60387;49.994;14.660;2023-03-25T02:13:18;96760.91;;;13.59;52.64
71915;BME280;60387;49.994;14.660;2023-03-25T02:34:55;96763.88;;;13.54;52.44
71915;BME280;60387;49.994;14.660;2023-03-25T02:40:55;96757.19;;;13.51;52.88
71915;BME280;60387;49.994;14.660;2023-03-25T02:46:16;96761.84;;;13.51;52.90
71915;BME280;60387;49.994;14.660;2023-03-25T02:49:01;96766.94;;;13.52;52.70
71915;BME280;60387;49.994;14.660;2023-03-25T02:51:46;96759.44;;;13.49;52.78
71915;BME280;60387;49.994;14.660;2023-03-25T02:54:23;96769.56;;;13.49;53.63
71915;BME280;60387;49.994;14.660;2023-03-25T02:56:58;96769.56;;;13.49;53.28
71915;BME280;60387;49.994;14.660;2023-03-25T02:59:33;96763.09;;;13.41;54.37
71915;BME280;60387;49.994;14.660;2023-03-25T03:02:09;96762.53;;;13.48;54.66
71915;BME280;60387;49.994;14.660;2023-03-25T03:04:51;96757.88;;;13.48;53.65
71915;BME280;60387;49.994;14.660;2023-03-25T03:07:37;96753.34;;;13.52;54.34
71915;BME280;60387;49.994;14.660;2023-03-25T03:10:25;96741.53;;;13.48;53.94
71915;BME280;60387;49.994;14.660;2023-03-25T03:13:28;96729.78;;;13.44;54.96
71915;BME280;60387;49.994;14.660;2023-03-25T03:16:37;96747.31;;;13.59;53.52
71915;BME280;60387;49.994;14.660;2023-03-25T03:19:43;96754.66;;;13.58;53.80
71915;BME280;60387;49.994;14.660;2023-03-25T03:22:33;96757.59;;;13.65;53.31
71915;BME280;60387;49.994;14.660;2023-03-25T03:25:14;96750.25;;;13.66;53.44
71915;BME280;60387;49.994;14.660;2023-03-25T03:27:54;96761.56;;;13.68;52.93
71915;BME280;60387;49.994;14.660;2023-03-25T03:33:22;96751.13;;;13.70;52.80
71915;BME280;60387;49.994;14.660;2023-03-25T03:36:03;96755.81;;;13.69;52.03
71915;BME280;60387;49.994;14.660;2023-03-25T03:38:52;96750.69;;;13.68;52.25
71915;BME280;60387;49.994;14.660;2023-03-25T03:41:28;96757.59;;;13.65;52.55
71915;BME280;60387;49.994;14.660;2023-03-25T03:44:06;96769.19;;;13.62;52.05
71915;BME280;60387;49.994;14.660;2023-03-25T03:46:57;96761.94;;;13.54;52.33
71915;BME280;60387;49.994;14.660;2023-03-25T03:49:36;96758.41;;;13.54;52.24
71915;BME280;60387;49.994;14.660;2023-03-25T03:52:27;96755.16;;;13.48;51.98
71915;BME280;60387;49.994;14.660;2023-03-25T03:55:07;96765.59;;;13.46;52.02
71915;BME280;60387;49.994;14.660;2023-03-25T04:00:32;96769.91;;;13.35;51.62
71915;BME280;60387;49.994;14.660;2023-03-25T04:03:16;96771.38;;;13.33;51.81
71915;BME280;60387;49.994;14.660;2023-03-25T04:05:56;96786.00;;;13.28;51.74
71915;BME280;60387;49.994;14.660;2023-03-25T04:08:36;96786.69;;;13.25;51.73
71915;BME280;60387;49.994;14.660;2023-03-25T04:11:22;96769.22;;;13.14;51.95
71915;BME280;60387;49.994;14.660;2023-03-25T04:13:58;96776.94;;;13.12;51.89
71915;BME280;60387;49.994;14.660;2023-03-25T04:16:32;96778.28;;;13.06;51.91
71915;BME280;60387;49.994;14.660;2023-03-25T04:19:06;96769.25;;;13.02;52.06
71915;BME280;60387;49.994;14.660;2023-03-25T04:21:39;96779.66;;;13.00;51.66
71915;BME280;60387;49.994;14.660;2023-03-25T04:24:13;96772.06;;;12.94;51.49
71915;BME280;60387;49.994;14.660;2023-03-25T04:26:47;96775.88;;;12.93;51.34
71915;BME280;60387;49.994;14.660;2023-03-25T04:29:20;96775.44;;;12.91;51.54
71915;BME280;60387;49.994;14.660;2023-03-25T04:31:53;96762.03;;;12.86;51.37
71915;BME280;60387;49.994;14.660;2023-03-25T04:34:27;96753.91;;;12.86;51.49
71915;BME280;60387;49.994;14.660;2023-03-25T04:37:00;96755.38;;;12.83;51.46
71915;BME280;60387;49.994;14.660;2023-03-25T04:39:34;96757.31;;;12.83;51.84
71915;BME280;60387;49.994;14.660;2023-03-25T04:42:08;96754.47;;;12.79;52.14
71915;BME280;60387;49.994;14.660;2023-03-25T04:44:42;96751.63;;;12.76;52.27
71915;BME280;60387;49.994;14.660;2023-03-25T04:47:16;96752.44;;;12.77;52.53
71915;BME280;60387;49.994;14.660;2023-03-25T04:49:52;96753.44;;;12.72;52.52
71915;BME280;60387;49.994;14.660;2023-03-25T04:52:26;96753.09;;;12.73;53.36
71915;BME280;60387;49.994;14.660;2023-03-25T04:54:59;96763.63;;;12.75;54.06
71915;BME280;60387;49.994;14.660;2023-03-25T04:57:32;96746.56;;;12.75;54.07
71915;BME280;60387;49.994;14.660;2023-03-25T05:00:07;96745.41;;;12.76;54.39
71915;BME280;60387;49.994;14.660;2023-03-25T05:02:49;96769.31;;;12.82;54.12
71915;BME280;60387;49.994;14.660;2023-03-25T05:05:24;96762.84;;;12.86;54.43
71915;BME280;60387;49.994;14.660;2023-03-25T05:07:57;96759.00;;;12.87;54.25
71915;BME280;60387;49.994;14.660;2023-03-25T05:10:30;96768.53;;;12.93;53.94
71915;BME280;60387;49.994;14.660;2023-03-25T05:13:05;96772.66;;;12.99;53.80
71915;BME280;60387;49.994;14.660;2023-03-25T05:15:39;96775.38;;;12.99;53.28
71915;BME280;60387;49.994;14.660;2023-03-25T05:18:14;96776.47;;;12.98;53.24
71915;BME280;60387;49.994;14.660;2023-03-25T05:20:47;96782.03;;;13.02;52.63
71915;BME280;60387;49.994;14.660;2023-03-25T05:23:21;96787.13;;;13.03;53.54
71915;BME280;60387;49.994;14.660;2023-03-25T05:25:54;96789.28;;;12.98;52.89
71915;BME280;60387;49.994;14.660;2023-03-25T05:28:27;96793.91;;;12.97;53.65
71915;BME280;60387;49.994;14.660;2023-03-25T05:31:01;96796.19;;;12.95;53.77
71915;BME280;60387;49.994;14.660;2023-03-25T05:33:36;96797.31;;;12.94;53.55
71915;BME280;60387;49.994;14.660;2023-03-25T05:36:13;96791.41;;;12.92;53.78
71915;BME280;60387;49.994;14.660;2023-03-25T05:38:46;96790.59;;;12.92;53.70
71915;BME280;60387;49.994;14.660;2023-03-25T05:41:21;96805.84;;;13.17;53.62
71915;BME280;60387;49.994;14.660;2023-03-25T05:43:54;96817.84;;;13.52;53.08
71915;BME280;60387;49.994;14.660;2023-03-25T05:46:28;96809.72;;;13.91;52.54
71915;BME280;60387;49.994;14.660;2023-03-25T05:49:01;96814.19;;;14.23;51.70
71915;BME280;60387;49.994;14.660;2023-03-25T05:51:34;96815.03;;;14.39;51.35
71915;BME280;60387;49.994;14.660;2023-03-25T05:54:08;96806.69;;;14.48;50.84
71915;BME280;60387;49.994;14.660;2023-03-25T05:56:41;96808.84;;;14.54;50.31
71915;BME280;60387;49.994;14.660;2023-03-25T05:59:14;96812.53;;;14.62;50.23
71915;BME280;60387;49.994;14.660;2023-03-25T06:01:48;96818.97;;;14.69;49.88
71915;BME280;60387;49.994;14.660;2023-03-25T06:04:21;96827.59;;;14.71;49.16
71915;BME280;60387;49.994;14.660;2023-03-25T06:06:54;96820.38;;;14.63;49.13
71915;BME280;60387;49.994;14.660;2023-03-25T06:09:27;96827.66;;;14.59;49.11
71915;BME280;60387;49.994;14.660;2023-03-25T06:12:02;96825.00;;;14.47;48.93
71915;BME280;60387;49.994;14.660;2023-03-25T06:14:35;96829.00;;;14.38;48.59
71915;BME280;60387;49.994;14.660;2023-03-25T06:17:08;96812.44;;;14.31;48.88
71915;BME280;60387;49.994;14.660;2023-03-25T06:19:42;96820.28;;;14.32;49.07
71915;BME280;60387;49.994;14.660;2023-03-25T06:22:15;96824.84;;;14.28;48.12
71915;BME280;60387;49.994;14.660;2023-03-25T06:24:49;96817.63;;;14.20;47.78
71915;BME280;60387;49.994;14.660;2023-03-25T06:27:22;96830.53;;;14.23;47.59
71915;BME280;60387;49.994;14.660;2023-03-25T06:29:55;96819.97;;;14.22;47.93
71915;BME280;60387;49.994;14.660;2023-03-25T06:32:29;96812.28;;;14.24;47.65
71915;BME280;60387;49.994;14.660;2023-03-25T06:35:04;96827.75;;;14.35;46.83
71915;BME280;60387;49.994;14.660;2023-03-25T06:37:37;96832.72;;;14.45;46.22
71915;BME280;60387;49.994;14.660;2023-03-25T06:40:12;96834.59;;;14.57;46.39
71915;BME280;60387;49.994;14.660;2023-03-25T06:42:45;96834.00;;;14.63;45.47
71915;BME280;60387;49.994;14.660;2023-03-25T06:45:18;96831.28;;;14.63;45.15
71915;BME280;60387;49.994;14.660;2023-03-25T06:47:53;96835.59;;;14.64;45.53
71915;BME280;60387;49.994;14.660;2023-03-25T06:50:26;96833.84;;;14.72;45.24
71915;BME280;60387;49.994;14.660;2023-03-25T06:53:00;96840.72;;;14.81;45.57
71915;BME280;60387;49.994;14.660;2023-03-25T06:55:33;96829.22;;;15.03;45.79
71915;BME280;60387;49.994;14.660;2023-03-25T06:58:06;96820.19;;;15.30;44.37
71915;BME280;60387;49.994;14.660;2023-03-25T07:00:40;96822.88;;;15.61;44.37
71915;BME280;60387;49.994;14.660;2023-03-25T07:03:13;96815.94;;;15.98;44.04
71915;BME280;60387;49.994;14.660;2023-03-25T07:05:48;96823.75;;;16.34;43.81
71915;BME280;60387;49.994;14.660;2023-03-25T07:08:21;96827.19;;;16.69;42.28
71915;BME280;60387;49.994;14.660;2023-03-25T07:11:03;96839.91;;;16.99;40.75
71915;BME280;60387;49.994;14.660;2023-03-25T07:13:36;96840.44;;;17.31;41.48
71915;BME280;60387;49.994;14.660;2023-03-25T07:16:10;96836.63;;;17.58;41.52
71915;BME280;60387;49.994;14.660;2023-03-25T07:18:43;96837.38;;;17.81;39.96
71915;BME280;60387;49.994;14.660;2023-03-25T07:21:17;96835.84;;;18.09;41.54
71915;BME280;60387;49.994;14.660;2023-03-25T07:23:51;96832.38;;;18.42;41.20
71915;BME280;60387;49.994;14.660;2023-03-25T07:26:25;96843.97;;;18.58;39.30
71915;BME280;60387;49.994;14.660;2023-03-25T07:28:58;96837.31;;;18.59;39.86
71915;BME280;60387;49.994;14.660;2023-03-25T07:31:31;96847.78;;;18.50;39.66
71915;BME280;60387;49.994;14.660;2023-03-25T07:34:04;96839.88;;;18.45;40.11
71915;BME280;60387;49.994;14.660;2023-03-25T07:36:38;96841.53;;;18.53;39.64
71915;BME280;60387;49.994;14.660;2023-03-25T07:39:11;96846.88;;;18.72;39.75
71915;BME280;60387;49.994;14.660;2023-03-25T07:41:44;96842.06;;;18.98;39.67
71915;BME280;60387;49.994;14.660;2023-03-25T07:44:18;96836.13;;;19.29;38.19
71915;BME280;60387;49.994;14.660;2023-03-25T07:46:51;96831.97;;;19.46;37.02
71915;BME280;60387;49.994;14.660;2023-03-25T07:49:25;96833.25;;;19.59;37.06
71915;BME280;60387;49.994;14.660;2023-03-25T07:51:58;96839.44;;;19.45;36.32
71915;BME280;60387;49.994;14.660;2023-03-25T07:54:31;96837.72;;;19.30;36.89
71915;BME280;60387;49.994;14.660;2023-03-25T07:57:05;96840.78;;;19.25;37.87
71915;BME280;60387;49.994;14.660;2023-03-25T07:59:38;96842.06;;;19.35;37.71
71915;BME280;60387;49.994;14.660;2023-03-25T08:02:12;96847.97;;;19.37;36.97
71915;BME280;60387;49.994;14.660;2023-03-25T08:04:46;96845.53;;;19.28;37.09
71915;BME280;60387;49.994;14.660;2023-03-25T08:07:19;96851.59;;;19.08;37.99
71915;BME280;60387;49.994;14.660;2023-03-25T08:09:53;96856.88;;;18.90;37.64
71915;BME280;60387;49.994;14.660;2023-03-25T08:12:26;96852.28;;;18.65;38.32
71915;BME280;60387;49.994;14.660;2023-03-25T08:14:59;96857.44;;;18.40;37.73
71915;BME280;60387;49.994;14.660;2023-03-25T08:17:33;96841.38;;;18.13;38.44
71915;BME280;60387;49.994;14.660;2023-03-25T08:20:06;96852.78;;;17.89;37.77
71915;BME280;60387;49.994;14.660;2023-03-25T08:22:43;96844.28;;;17.71;38.28
71915;BME280;60387;49.994;14.660;2023-03-25T08:25:16;96842.53;;;17.60;38.56
71915;BME280;60387;49.994;14.660;2023-03-25T08:27:50;96847.78;;;17.46;38.54
71915;BME280;60387;49.994;14.660;2023-03-25T08:30:23;96852.38;;;17.38;39.22
71915;BME280;60387;49.994;14.660;2023-03-25T08:32:56;96864.66;;;17.29;38.50
71915;BME280;60387;49.994;14.660;2023-03-25T08:35:30;96858.22;;;17.18;38.99
71915;BME280;60387;49.994;14.660;2023-03-25T08:38:03;96849.50;;;17.12;39.07
71915;BME280;60387;49.994;14.660;2023-03-25T08:40:37;96854.19;;;17.12;39.31
71915;BME280;60387;49.994;14.660;2023-03-25T08:43:11;96840.72;;;17.22;39.11
71915;BME280;60387;49.994;14.660;2023-03-25T08:45:45;96849.38;;;17.47;39.09
71915;BME280;60387;49.994;14.660;2023-03-25T08:48:18;96845.59;;;17.81;38.40
71915;BME280;60387;49.994;14.660;2023-03-25T08:50:51;96852.34;;;18.13;37.77
71915;BME280;60387;49.994;14.660;2023-03-25T08:53:25;96845.44;;;18.52;37.61
71915;BME280;60387;49.994;14.660;2023-03-25T08:55:58;96848.31;;;18.95;36.06
71915;BME280;60387;49.994;14.660;2023-03-25T08:58:32;96845.47;;;19.21;35.83
71915;BME280;60387;49.994;14.660;2023-03-25T09:01:08;96858.22;;;19.40;35.33
71915;BME280;60387;49.994;14.660;2023-03-25T09:03:41;96864.81;;;19.32;34.48
71915;BME280;60387;49.994;14.660;2023-03-25T09:06:15;96875.88;;;19.06;34.97
71915;BME280;60387;49.994;14.660;2023-03-25T09:08:48;96889.50;;;18.66;37.64
71915;BME280;60387;49.994;14.660;2023-03-25T09:11:21;96912.75;;;17.94;40.19
71915;BME280;60387;49.994;14.660;2023-03-25T09:13:55;96910.34;;;17.44;41.17
71915;BME280;60387;49.994;14.660;2023-03-25T09:16:30;96899.41;;;17.06;40.88
71915;BME280;60387;49.994;14.660;2023-03-25T09:19:03;96899.47;;;16.68;42.28
71915;BME280;60387;49.994;14.660;2023-03-25T09:21:37;96896.56;;;16.42;42.12
71915;BME280;60387;49.994;14.660;2023-03-25T09:24:10;96889.75;;;16.36;42.51
71915;BME280;60387;49.994;14.660;2023-03-25T09:26:43;96889.06;;;16.39;43.45
71915;BME280;60387;49.994;14.660;2023-03-25T09:29:17;96886.91;;;16.48;43.28
71915;BME280;60387;49.994;14.660;2023-03-25T09:31:50;96896.16;;;16.59;43.11
71915;BME280;60387;49.994;14.660;2023-03-25T09:34:23;96894.13;;;16.75;43.78
71915;BME280;60387;49.994;14.660;2023-03-25T09:36:57;96889.22;;;17.03;43.43
71915;BME280;60387;49.994;14.660;2023-03-25T09:39:30;96894.34;;;17.27;42.92
71915;BME280;60387;49.994;14.660;2023-03-25T09:42:14;96899.38;;;17.44;42.89
71915;BME280;60387;49.994;14.660;2023-03-25T09:47:42;96903.44;;;17.76;41.28
71915;BME280;60387;49.994;14.660;2023-03-25T09:50:21;96885.97;;;17.61;41.16
71915;BME280;60387;49.994;14.660;2023-03-25T09:56:05;96904.31;;;17.57;41.39
71915;BME280;60387;49.994;14.660;2023-03-25T09:58:45;96897.91;;;17.50;40.45
71915;BME280;60387;49.994;14.660;2023-03-25T10:07:30;96885.25;;;18.13;40.46
71915;BME280;60387;49.994;14.660;2023-03-25T10:16:09;96886.47;;;18.71;38.21
71915;BME280;60387;49.994;14.660;2023-03-25T10:18:54;96869.72;;;18.83;38.14
71915;BME280;60387;49.994;14.660;2023-03-25T10:24:29;96876.16;;;18.97;36.54
71915;BME280;60387;49.994;14.660;2023-03-25T10:27:25;96886.69;;;18.92;36.83
71915;BME280;60387;49.994;14.660;2023-03-25T10:32:53;96877.06;;;18.72;36.23
71915;BME280;60387;49.994;14.660;2023-03-25T10:35:36;96872.66;;;18.64;36.19
71915;BME280;60387;49.994;14.660;2023-03-25T10:38:22;96868.66;;;18.58;36.06
71915;BME280;60387;49.994;14.660;2023-03-25T10:41:26;96863.53;;;18.56;36.25
71915;BME280;60387;49.994;14.660;2023-03-25T10:44:09;96853.50;;;18.38;35.30
71915;BME280;60387;49.994;14.660;2023-03-25T10:46:45;96856.16;;;18.31;36.63
71915;BME280;60387;49.994;14.660;2023-03-25T10:49:24;96858.94;;;18.34;37.16
71915;BME280;60387;49.994;14.660;2023-03-25T10:51:59;96854.78;;;18.47;37.09
71915;BME280;60387;49.994;14.660;2023-03-25T10:54:40;96857.31;;;18.59;36.86
71915;BME280;60387;49.994;14.660;2023-03-25T10:57:24;96848.72;;;18.64;35.86
71915;BME280;60387;49.994;14.660;2023-03-25T11:00:15;96851.25;;;18.76;36.43
71915;BME280;60387;49.994;14.660;2023-03-25T11:02:49;96844.84;;;19.02;35.92
71915;BME280;60387;49.994;14.660;2023-03-25T11:05:25;96850.50;;;19.16;35.34
71915;BME280;60387;49.994;14.660;2023-03-25T11:08:00;96840.38;;;19.23;34.75
71915;BME280;60387;49.994;14.660;2023-03-25T11:10:35;96838.56;;;19.38;35.16
71915;BME280;60387;49.994;14.660;2023-03-25T11:13:12;96822.97;;;19.49;34.73
71915;BME280;60387;49.994;14.660;2023-03-25T11:15:45;96822.31;;;19.66;34.29
71915;BME280;60387;49.994;14.660;2023-03-25T11:18:29;96823.66;;;19.85;33.87
71915;BME280;60387;49.994;14.660;2023-03-25T11:21:08;96825.66;;;19.95;33.30
71915;BME280;60387;49.994;14.660;2023-03-25T11:23:43;96824.81;;;19.84;32.59
71915;BME280;60387;49.994;14.660;2023-03-25T11:26:23;96810.63;;;19.76;32.60
71915;BME280;60387;49.994;14.660;2023-03-25T11:29:03;96794.06;;;19.69;32.85
71915;BME280;60387;49.994;14.660;2023-03-25T11:31:40;96810.00;;;19.99;33.11
71915;BME280;60387;49.994;14.660;2023-03-25T11:34:19;96805.81;;;20.19;33.09
71915;BME280;60387;49.994;14.660;2023-03-25T11:37:01;96797.31;;;20.49;33.06
71915;BME280;60387;49.994;14.660;2023-03-25T11:39:40;96800.19;;;20.84;32.90
71915;BME280;60387;49.994;14.660;2023-03-25T11:44:54;96777.84;;;21.17;31.34
71915;BME280;60387;49.994;14.660;2023-03-25T11:47:33;96786.50;;;21.01;29.98
71915;BME280;60387;49.994;14.660;2023-03-25T11:50:18;96797.78;;;20.79;29.78
71915;BME280;60387;49.994;14.660;2023-03-25T11:52:58;96786.75;;;20.61;29.65
71915;BME280;60387;49.994;14.660;2023-03-25T11:55:54;96785.13;;;20.53;30.85
71915;BME280;60387;49.994;14.660;2023-03-25T11:58:29;96793.41;;;20.53;30.85
71915;BME280;60387;49.994;14.660;2023-03-25T12:01:36;96785.53;;;20.52;30.61
71915;BME280;60387;49.994;14.660;2023-03-25T12:09:27;96794.75;;;21.01;31.34
71915;BME280;60387;49.994;14.660;2023-03-25T12:12:15;96786.91;;;21.24;30.04
71915;BME280;60387;49.994;14.660;2023-03-25T12:29:22;96770.19;;;20.54;29.83
71915;BME280;60387;49.994;14.660;2023-03-25T12:40:03;96759.69;;;19.95;29.58
71915;BME280;60387;49.994;14.660;2023-03-25T13:00:24;96740.28;;;20.39;28.68
71915;BME280;60387;49.994;14.660;2023-03-25T13:11:37;96724.06;;;20.13;30.18
71915;BME280;60387;49.994;14.660;2023-03-25T13:14:43;96727.31;;;20.32;29.05
71915;BME280;60387;49.994;14.660;2023-03-25T13:17:25;96722.97;;;20.35;29.54
71915;BME280;60387;49.994;14.660;2023-03-25T13:20:01;96716.28;;;20.29;29.03
71915;BME280;60387;49.994;14.660;2023-03-25T13:22:46;96709.53;;;20.12;28.55
71915;BME280;60387;49.994;14.660;2023-03-25T13:25:32;96723.97;;;19.99;29.26
71915;BME280;60387;49.994;14.660;2023-03-25T13:28:14;96712.53;;;19.90;28.89
71915;BME280;60387;49.994;14.660;2023-03-25T13:30:49;96705.41;;;19.78;29.09
71915;BME280;60387;49.994;14.660;2023-03-25T13:33:26;96702.25;;;19.77;29.37
71915;BME280;60387;49.994;14.660;2023-03-25T13:36:08;96708.63;;;19.91;29.62
71915;BME280;60387;49.994;14.660;2023-03-25T13:38:51;96707.09;;;20.00;29.29
71915;BME280;60387;49.994;14.660;2023-03-25T13:41:49;96695.78;;;20.16;29.44
71915;BME280;60387;49.994;14.660;2023-03-25T13:47:24;96686.41;;;20.27;28.38
71915;BME280;60387;49.994;14.660;2023-03-25T13:50:06;96685.63;;;20.34;28.18
71915;BME280;60387;49.994;14.660;2023-03-25T13:52:50;96679.38;;;20.37;27.91
71915;BME280;60387;49.994;14.660;2023-03-25T13:55:31;96680.94;;;20.48;27.43
71915;BME280;60387;49.994;14.660;2023-03-25T13:58:45;96688.44;;;20.55;27.26
71915;BME280;60387;49.994;14.660;2023-03-25T14:04:39;96687.63;;;20.33;27.34
71915;BME280;60387;49.994;14.660;2023-03-25T14:12:52;96699.91;;;19.78;27.67
71915;BME280;60387;49.994;14.660;2023-03-25T14:15:33;96697.94;;;19.72;27.67
71915;BME280;60387;49.994;14.660;2023-03-25T14:18:15;96692.75;;;19.57;27.37
71915;BME280;60387;49.994;14.660;2023-03-25T14:20:50;96687.59;;;19.52;28.03
71915;BME280;60387;49.994;14.660;2023-03-25T14:23:23;96693.09;;;19.52;28.33
71915;BME280;60387;49.994;14.660;2023-03-25T14:25:58;96687.66;;;19.59;28.09
71915;BME280;60387;49.994;14.660;2023-03-25T14:28:38;96690.91;;;19.78;28.50
71915;BME280;60387;49.994;14.660;2023-03-25T14:39:11;96689.88;;;20.10;29.01
71915;BME280;60387;49.994;14.660;2023-03-25T14:44:41;96696.09;;;19.97;28.04
71915;BME280;60387;49.994;14.660;2023-03-25T14:53:04;96764.44;;;18.98;30.53
71915;BME280;60387;49.994;14.660;2023-03-25T14:55:43;96754.19;;;18.55;32.11
71915;BME280;60387;49.994;14.660;2023-03-25T14:58:26;96755.50;;;18.05;33.25
71915;BME280;60387;49.994;14.660;2023-03-25T15:01:05;96753.00;;;17.64;34.59
71915;BME280;60387;49.994;14.660;2023-03-25T15:03:42;96771.19;;;17.27;35.43
71915;BME280;60387;49.994;14.660;2023-03-25T15:06:17;96738.41;;;16.85;36.69
71915;BME280;60387;49.994;14.660;2023-03-25T15:08:55;96767.09;;;16.72;36.58
71915;BME280;60387;49.994;14.660;2023-03-25T15:11:32;96769.06;;;16.53;36.93
71915;BME280;60387;49.994;14.660;2023-03-25T15:14:08;96766.06;;;16.39;38.01
71915;BME280;60387;49.994;14.660;2023-03-25T15:19:19;96773.16;;;16.06;38.69
71915;BME280;60387;49.994;14.660;2023-03-25T15:24:35;96767.47;;;15.76;42.06
71915;BME280;60387;49.994;14.660;2023-03-25T15:38:59;96770.25;;;15.30;41.54
71915;BME280;60387;49.994;14.660;2023-03-25T15:42:22;96761.38;;;15.33;41.36
71915;BME280;60387;49.994;14.660;2023-03-25T15:56:36;96789.91;;;15.35;41.88
71915;BME280;60387;49.994;14.660;2023-03-25T16:01:50;96785.69;;;15.38;41.47
71915;BME280;60387;49.994;14.660;2023-03-25T16:04:41;96777.16;;;15.39;41.83
71915;BME280;60387;49.994;14.660;2023-03-25T16:07:18;96781.03;;;15.38;41.79
71915;BME280;60387;49.994;14.660;2023-03-25T16:09:52;96776.00;;;15.40;41.61
71915;BME280;60387;49.994;14.660;2023-03-25T16:12:28;96782.63;;;15.39;41.24
71915;BME280;60387;49.994;14.660;2023-03-25T16:15:03;96792.63;;;15.35;41.21
71915;BME280;60387;49.994;14.660;2023-03-25T16:17:37;96789.47;;;15.33;41.10
71915;BME280;60387;49.994;14.660;2023-03-25T16:20:21;96790.50;;;15.29;40.79
71915;BME280;60387;49.994;14.660;2023-03-25T16:22:56;96788.50;;;15.26;40.71
71915;BME280;60387;49.994;14.660;2023-03-25T16:25:31;96795.97;;;15.29;40.97
71915;BME280;60387;49.994;14.660;2023-03-25T16:28:13;96800.47;;;15.21;41.03
71915;BME280;60387;49.994;14.660;2023-03-25T16:30:50;96815.50;;;15.15;41.26
71915;BME280;60387;49.994;14.660;2023-03-25T16:33:27;96791.84;;;15.04;41.50
71915;BME280;60387;49.994;14.660;2023-03-25T16:38:36;96807.81;;;14.90;41.29
71915;BME280;60387;49.994;14.660;2023-03-25T16:41:11;96796.06;;;14.86;41.21